createdAt,value
2023-10-27T04:15:26.712Z,0.00
2023-10-27T04:16:26.765Z,0.00
2023-10-27T04:17:26.751Z,0.00
2023-10-27T04:18:26.713Z,0.00
2023-10-27T04:19:26.692Z,0.00
2023-10-27T04:20:26.671Z,0.00
2023-10-27T04:21:26.630Z,0.00
2023-10-27T04:22:26.674Z,0.00
2023-10-27T04:23:26.612Z,0.00
2023-10-27T04:24:26.615Z,0.00
2023-10-27T04:25:26.618Z,0.00
2023-10-27T04:26:26.596Z,0.00
2023-10-27T04:27:26.580Z,0.00
2023-10-27T04:28:26.581Z,0.00
2023-10-27T04:29:26.535Z,0.00
2023-10-27T04:30:26.526Z,0.00
2023-10-27T04:31:26.543Z,0.00
2023-10-27T04:32:26.565Z,0.00
2023-10-27T04:33:26.678Z,0.00
2023-10-27T04:34:26.525Z,0.00
2023-10-27T04:35:26.456Z,0.00
2023-10-27T04:36:26.614Z,0.00
2023-10-27T04:37:26.455Z,0.00
2023-10-27T04:38:26.425Z,0.00
2023-10-27T04:39:26.409Z,0.00
2023-10-27T04:40:26.409Z,0.00
2023-10-27T04:41:26.393Z,0.00
2023-10-27T04:42:26.371Z,0.00
2023-10-27T04:43:26.413Z,0.00
2023-10-27T04:44:26.439Z,0.00
2023-10-27T04:45:26.350Z,0.00
2023-10-27T04:46:26.361Z,0.00
2023-10-27T04:47:26.360Z,0.00
2023-10-27T04:48:26.308Z,0.00
2023-10-27T04:49:26.307Z,0.00
2023-10-27T04:50:26.280Z,0.00
2023-10-27T04:51:26.258Z,0.00
2023-10-27T04:52:26.285Z,0.00
2023-10-27T04:53:26.223Z,0.00
2023-10-27T04:54:26.227Z,0.00
2023-10-27T04:55:26.262Z,0.00
2023-10-27T04:56:26.187Z,0.00
2023-10-27T04:57:26.176Z,0.00
2023-10-27T04:58:26.192Z,0.00
2023-10-27T04:59:26.142Z,0.00
2023-10-27T05:00:26.260Z,0.00
2023-10-27T05:01:28.496Z,0.00
2023-10-27T05:02:26.108Z,0.00
2023-10-27T05:03:26.134Z,0.00
2023-10-27T05:04:26.131Z,0.00
2023-10-27T05:05:26.093Z,0.00
2023-10-27T05:06:26.048Z,0.00
2023-10-27T05:07:26.081Z,0.00
2023-10-27T05:08:26.026Z,0.00
2023-10-27T05:09:26.026Z,0.00
2023-10-27T05:10:26.030Z,0.00
2023-10-27T05:11:25.988Z,0.00
2023-10-27T05:12:25.972Z,0.00
2023-10-27T05:13:25.984Z,0.00
2023-10-27T05:14:25.948Z,0.00
2023-10-27T05:15:25.938Z,0.00
2023-10-27T05:16:25.965Z,0.00
2023-10-27T05:17:25.925Z,0.00
2023-10-27T05:18:26.011Z,0.00
2023-10-27T05:19:25.949Z,0.00
2023-10-27T05:20:25.862Z,0.00
2023-10-27T05:21:25.852Z,0.00
2023-10-27T05:22:25.868Z,0.00
2023-10-27T05:23:25.838Z,0.00
2023-10-27T05:24:25.817Z,0.00
2023-10-27T05:25:25.837Z,0.00
2023-10-27T05:26:25.782Z,0.00
2023-10-27T05:27:25.779Z,0.00
2023-10-27T05:28:25.793Z,0.00
2023-10-27T05:29:25.754Z,0.00
2023-10-27T05:30:25.735Z,0.00
2023-10-27T05:31:25.771Z,0.00
2023-10-27T05:32:25.736Z,0.00
2023-10-27T05:33:25.705Z,0.00
2023-10-27T05:34:26.379Z,0.00
2023-10-27T05:35:25.674Z,0.00
2023-10-27T05:36:25.656Z,0.00
2023-10-27T05:37:25.719Z,0.00
2023-10-27T05:38:25.643Z,0.00
2023-10-27T05:39:25.621Z,0.00
2023-10-27T05:40:25.608Z,0.00
2023-10-27T05:41:25.620Z,0.00
2023-10-27T05:42:25.590Z,0.00
2023-10-27T05:43:25.648Z,0.00
2023-10-27T05:44:25.557Z,0.00
2023-10-27T05:45:25.554Z,0.00
2023-10-27T05:46:25.567Z,0.00
2023-10-27T05:47:25.557Z,0.00
2023-10-27T05:48:25.554Z,0.00
2023-10-27T05:49:25.545Z,0.00
2023-10-27T05:50:25.478Z,0.00
2023-10-27T05:51:25.475Z,0.00
2023-10-27T05:52:25.491Z,4.00
2023-10-27T05:53:25.443Z,4.00
2023-10-27T05:54:25.424Z,4.00
2023-10-27T05:55:25.436Z,4.00
2023-10-27T05:56:25.411Z,4.00
2023-10-27T05:57:25.404Z,4.00
2023-10-27T05:58:25.408Z,4.00
2023-10-27T05:59:25.361Z,4.00
2023-10-27T06:00:25.348Z,8.00
2023-10-27T06:01:25.361Z,8.00
2023-10-27T06:02:25.329Z,8.00
2023-10-27T06:03:25.371Z,12.00
2023-10-27T06:04:25.323Z,12.00
2023-10-27T06:05:25.282Z,16.00
2023-10-27T06:06:25.283Z,20.00
2023-10-27T06:07:25.271Z,20.00
2023-10-27T06:08:25.251Z,24.00
2023-10-27T06:09:25.232Z,28.00
2023-10-27T06:10:25.279Z,28.00
2023-10-27T06:11:25.221Z,32.00
2023-10-27T06:12:25.186Z,36.00
2023-10-27T06:13:25.237Z,36.00
2023-10-27T06:14:25.166Z,36.00
2023-10-27T06:15:25.194Z,36.00
2023-10-27T06:16:25.163Z,40.00
2023-10-27T06:17:25.123Z,40.00
2023-10-27T06:18:25.112Z,44.00
2023-10-27T06:19:25.194Z,40.00
2023-10-27T06:20:25.163Z,40.00
2023-10-27T06:21:25.084Z,44.00
2023-10-27T06:22:25.106Z,48.00
2023-10-27T06:23:25.053Z,48.00
2023-10-27T06:24:25.042Z,48.00
2023-10-27T06:25:25.075Z,48.00
2023-10-27T06:26:25.007Z,52.00
2023-10-27T06:27:24.996Z,52.00
2023-10-27T06:28:25.039Z,56.00
2023-10-27T06:29:24.985Z,60.00
2023-10-27T06:30:24.965Z,64.00
2023-10-27T06:31:25.043Z,68.00
2023-10-27T06:32:24.981Z,76.00
2023-10-27T06:33:24.935Z,80.00
2023-10-27T06:34:24.968Z,80.00
2023-10-27T06:35:24.892Z,84.00
2023-10-27T06:36:24.881Z,92.00
2023-10-27T06:37:24.934Z,96.00
2023-10-27T06:38:24.869Z,108.00
2023-10-27T06:39:24.851Z,116.00
2023-10-27T06:40:24.869Z,128.00
2023-10-27T06:41:24.820Z,148.00
2023-10-27T06:42:24.799Z,172.00
2023-10-27T06:43:24.831Z,196.00
2023-10-27T06:44:24.774Z,220.00
2023-10-27T06:45:24.768Z,252.00
2023-10-27T06:46:24.784Z,280.00
2023-10-27T06:47:24.785Z,292.00
2023-10-27T06:48:24.856Z,308.00
2023-10-27T06:49:24.742Z,316.00
2023-10-27T06:50:24.695Z,312.00
2023-10-27T06:51:24.728Z,328.00
2023-10-27T06:52:24.700Z,340.00
2023-10-27T06:53:24.685Z,368.00
2023-10-27T06:54:24.650Z,388.00
2023-10-27T06:55:24.688Z,400.00
2023-10-27T06:56:24.622Z,428.00
2023-10-27T06:57:24.619Z,448.00
2023-10-27T06:58:24.605Z,468.00
2023-10-27T06:59:24.677Z,484.00
2023-10-27T07:00:24.570Z,512.00
2023-10-27T07:01:24.586Z,536.00
2023-10-27T07:02:24.677Z,556.00
2023-10-27T07:03:31.339Z,572.00
2023-10-27T07:04:25.710Z,576.00
2023-10-27T07:05:24.612Z,600.00
2023-10-27T07:06:24.500Z,628.00
2023-10-27T07:07:28.597Z,640.00
2023-10-27T07:08:24.483Z,660.00
2023-10-27T07:09:24.465Z,668.00
2023-10-27T07:10:24.504Z,684.00
2023-10-27T07:11:24.453Z,696.00
2023-10-27T07:12:24.437Z,696.00
2023-10-27T07:13:24.476Z,704.00
2023-10-27T07:14:24.404Z,696.00
2023-10-27T07:15:24.413Z,712.00
2023-10-27T07:16:24.435Z,716.00
2023-10-27T07:17:24.374Z,720.00
2023-10-27T07:18:24.354Z,728.00
2023-10-27T07:19:24.421Z,736.00
2023-10-27T07:20:24.401Z,724.00
2023-10-27T07:21:24.332Z,712.00
2023-10-27T07:22:24.321Z,696.00
2023-10-27T07:23:24.283Z,700.00
2023-10-27T07:24:24.279Z,704.00
2023-10-27T07:25:24.297Z,708.00
2023-10-27T07:26:24.266Z,696.00
2023-10-27T07:27:24.366Z,692.00
2023-10-27T07:28:24.255Z,696.00
2023-10-27T07:29:24.213Z,696.00
2023-10-27T07:30:24.208Z,696.00
2023-10-27T07:31:24.292Z,668.00
2023-10-27T07:32:24.179Z,644.00
2023-10-27T07:33:24.193Z,628.00
2023-10-27T07:34:24.177Z,656.00
2023-10-27T07:35:24.149Z,700.00
2023-10-27T07:36:24.124Z,736.00
2023-10-27T07:37:24.226Z,724.00
2023-10-27T07:38:24.104Z,732.00
2023-10-27T07:39:24.083Z,720.00
2023-10-27T07:40:24.144Z,720.00
2023-10-27T07:41:24.056Z,756.00
2023-10-27T07:42:24.060Z,792.00
2023-10-27T07:43:24.053Z,772.00
2023-10-27T07:44:24.024Z,760.00
2023-10-27T07:45:24.016Z,776.00
2023-10-27T07:46:24.054Z,824.00
2023-10-27T07:47:24.008Z,848.00
2023-10-27T07:48:24.015Z,856.00
2023-10-27T07:49:24.023Z,900.00
2023-10-27T07:50:23.966Z,944.00
2023-10-27T07:51:23.930Z,996.00
2023-10-27T07:52:23.959Z,1044.00
2023-10-27T07:53:23.913Z,1080.00
2023-10-27T07:54:23.921Z,1068.00
2023-10-27T07:55:23.962Z,1076.00
2023-10-27T07:56:23.873Z,1072.00
2023-10-27T07:57:23.856Z,1116.00
2023-10-27T07:58:23.864Z,1124.00
2023-10-27T07:59:23.843Z,1120.00
2023-10-27T08:00:23.889Z,1096.00
2023-10-27T08:01:24.039Z,1088.00
2023-10-27T08:02:23.793Z,1064.00
2023-10-27T08:03:23.970Z,1060.00
2023-10-27T08:04:23.792Z,1040.00
2023-10-27T08:05:23.755Z,1048.00
2023-10-27T08:06:23.753Z,1044.00
2023-10-27T08:07:23.755Z,1048.00
2023-10-27T08:08:23.765Z,1052.00
2023-10-27T08:09:23.770Z,1024.00
2023-10-27T08:10:23.752Z,1048.00
2023-10-27T08:11:23.707Z,1084.00
2023-10-27T08:12:23.739Z,1080.00
2023-10-27T08:13:23.706Z,1080.00
2023-10-27T08:14:23.642Z,1060.00
2023-10-27T08:15:23.629Z,1064.00
2023-10-27T08:16:23.653Z,1104.00
2023-10-27T08:17:23.614Z,1156.00
2023-10-27T08:18:23.637Z,1116.00
2023-10-27T08:19:23.699Z,1080.00
2023-10-27T08:20:23.573Z,1040.00
2023-10-27T08:21:23.541Z,1076.00
2023-10-27T08:22:23.602Z,1096.00
2023-10-27T08:23:23.519Z,1092.00
2023-10-27T08:24:23.513Z,1076.00
2023-10-27T08:25:23.585Z,1068.00
2023-10-27T08:26:23.498Z,1044.00
2023-10-27T08:27:23.565Z,1012.00
2023-10-27T08:28:23.516Z,1012.00
2023-10-27T08:29:23.436Z,992.00
2023-10-27T08:30:23.439Z,976.00
2023-10-27T08:31:23.455Z,1000.00
2023-10-27T08:32:23.430Z,1020.00
2023-10-27T08:33:23.421Z,1008.00
2023-10-27T08:34:23.508Z,964.00
2023-10-27T08:35:23.371Z,932.00
2023-10-27T08:36:24.947Z,976.00
2023-10-27T08:37:23.370Z,1152.00
2023-10-27T08:38:23.331Z,1320.00
2023-10-27T08:39:23.311Z,1464.00
2023-10-27T08:40:23.383Z,1584.00
2023-10-27T08:41:23.324Z,1660.00
2023-10-27T08:42:23.319Z,1624.00
2023-10-27T08:43:23.274Z,1592.00
2023-10-27T08:44:25.821Z,1536.00
2023-10-27T08:45:23.253Z,1484.00
2023-10-27T08:46:23.284Z,1460.00
2023-10-27T08:47:23.260Z,1476.00
2023-10-27T08:48:23.251Z,1432.00
2023-10-27T08:49:23.226Z,1368.00
2023-10-27T08:50:23.180Z,1276.00
2023-10-27T08:51:23.153Z,1168.00
2023-10-27T08:52:23.183Z,1000.00
2023-10-27T08:53:23.128Z,872.00
2023-10-27T08:54:23.112Z,744.00
2023-10-27T08:55:23.201Z,660.00
2023-10-27T08:56:23.092Z,620.00
2023-10-27T08:57:23.071Z,676.00
2023-10-27T08:58:23.074Z,784.00
2023-10-27T08:59:23.077Z,908.00
2023-10-27T09:00:23.044Z,904.00
2023-10-27T09:01:23.041Z,816.00
2023-10-27T09:02:23.012Z,784.00
2023-10-27T09:03:22.998Z,744.00
2023-10-27T09:04:23.039Z,768.00
2023-10-27T09:05:23.023Z,780.00
2023-10-27T09:06:22.957Z,828.00
2023-10-27T09:07:22.976Z,844.00
2023-10-27T09:08:22.952Z,836.00
2023-10-27T09:09:22.927Z,872.00
2023-10-27T09:10:22.917Z,912.00
2023-10-27T09:11:22.883Z,1016.00
2023-10-27T09:12:22.874Z,1132.00
2023-10-27T09:13:22.956Z,1272.00
2023-10-27T09:14:22.885Z,1416.00
2023-10-27T09:15:22.836Z,1556.00
2023-10-27T09:16:22.835Z,1620.00
2023-10-27T09:17:22.803Z,1628.00
2023-10-27T09:18:22.879Z,1532.00
2023-10-27T09:19:22.820Z,1388.00
2023-10-27T09:20:22.764Z,1300.00
2023-10-27T09:21:22.752Z,1220.00
2023-10-27T09:22:29.058Z,1156.00
2023-10-27T09:23:23.758Z,1108.00
2023-10-27T09:24:22.709Z,1108.00
2023-10-27T09:25:22.743Z,1208.00
2023-10-27T09:26:22.701Z,1328.00
2023-10-27T09:27:22.695Z,1444.00
2023-10-27T09:28:22.710Z,1564.00
2023-10-27T09:29:22.649Z,1668.00
2023-10-27T09:30:22.627Z,1732.00
2023-10-27T09:31:22.647Z,1764.00
2023-10-27T09:32:22.688Z,1856.00
2023-10-27T09:33:22.659Z,1944.00
2023-10-27T09:34:22.733Z,1960.00
2023-10-27T09:35:22.577Z,1984.00
2023-10-27T09:36:24.894Z,2000.00
2023-10-27T09:37:22.570Z,1996.00
2023-10-27T09:38:22.529Z,1988.00
2023-10-27T09:39:22.514Z,1980.00
2023-10-27T09:40:22.553Z,1956.00
2023-10-27T09:41:22.492Z,1928.00
2023-10-27T09:42:22.493Z,1960.00
2023-10-27T09:43:22.483Z,1956.00
2023-10-27T09:44:22.446Z,1948.00
2023-10-27T09:45:22.439Z,1980.00
2023-10-27T09:46:22.490Z,2000.00
2023-10-27T09:47:22.429Z,2016.00
2023-10-27T09:48:22.470Z,2032.00
2023-10-27T09:49:22.577Z,2080.00
2023-10-27T09:50:22.373Z,2116.00
2023-10-27T09:51:22.364Z,2136.00
2023-10-27T09:52:22.366Z,2128.00
2023-10-27T09:53:22.326Z,2172.00
2023-10-27T09:54:22.320Z,2248.00
2023-10-27T09:55:22.370Z,2292.00
2023-10-27T09:56:22.304Z,2332.00
2023-10-27T09:57:22.325Z,2356.00
2023-10-27T09:58:22.260Z,2340.00
2023-10-27T09:59:22.253Z,2332.00
2023-10-27T10:00:22.268Z,2328.00
2023-10-27T10:01:22.300Z,2336.00
2023-10-27T10:02:22.207Z,2356.00
2023-10-27T10:03:22.296Z,2336.00
2023-10-27T10:04:22.225Z,2344.00
2023-10-27T10:05:22.340Z,2348.00
2023-10-27T10:06:22.161Z,2316.00
2023-10-27T10:07:22.222Z,2356.00
2023-10-27T10:08:22.132Z,2300.00
2023-10-27T10:09:22.130Z,2304.00
2023-10-27T10:10:22.154Z,2284.00
2023-10-27T10:11:22.097Z,2252.00
2023-10-27T10:12:22.081Z,2192.00
2023-10-27T10:13:22.103Z,2156.00
2023-10-27T10:14:22.068Z,2108.00
2023-10-27T10:15:22.057Z,2056.00
2023-10-27T10:16:22.038Z,2036.00
2023-10-27T10:17:22.015Z,2012.00
2023-10-27T10:18:22.003Z,1996.00
2023-10-27T10:19:22.031Z,1996.00
2023-10-27T10:20:21.978Z,2012.00
2023-10-27T10:21:21.959Z,2044.00
2023-10-27T10:22:22.011Z,2084.00
2023-10-27T10:23:21.936Z,2136.00
2023-10-27T10:24:21.940Z,2180.00
2023-10-27T10:25:21.951Z,2256.00
2023-10-27T10:26:21.898Z,2308.00
2023-10-27T10:27:21.904Z,2372.00
2023-10-27T10:28:28.998Z,2444.00
2023-10-27T10:29:21.880Z,2512.00
2023-10-27T10:30:21.883Z,2588.00
2023-10-27T10:31:21.832Z,2648.00
2023-10-27T10:32:21.826Z,2716.00
2023-10-27T10:33:21.854Z,2772.00
2023-10-27T10:34:21.825Z,2844.00
2023-10-27T10:35:21.841Z,2888.00
2023-10-27T10:36:21.780Z,2880.00
2023-10-27T10:37:24.283Z,2936.00
2023-10-27T10:38:21.768Z,3080.00
2023-10-27T10:39:21.726Z,3188.00
2023-10-27T10:40:21.843Z,3256.00
2023-10-27T10:41:21.743Z,3344.00
2023-10-27T10:42:21.687Z,3444.00
2023-10-27T10:43:21.921Z,3516.00
2023-10-27T10:44:21.676Z,3604.00
2023-10-27T10:45:21.708Z,3696.00
2023-10-27T10:46:21.671Z,3736.00
2023-10-27T10:47:21.629Z,3808.00
2023-10-27T10:48:21.721Z,3800.00
2023-10-27T10:49:21.661Z,3712.00
2023-10-27T10:50:21.594Z,3620.00
2023-10-27T10:51:21.605Z,3436.00
2023-10-27T10:52:21.585Z,3224.00
2023-10-27T10:53:21.550Z,3048.00
2023-10-27T10:54:21.543Z,2888.00
2023-10-27T10:55:21.578Z,3040.00
2023-10-27T10:56:21.532Z,3208.00
2023-10-27T10:57:21.506Z,3252.00
2023-10-27T10:58:21.522Z,3160.00
2023-10-27T10:59:21.484Z,2996.00
2023-10-27T11:00:21.464Z,2864.00
2023-10-27T11:01:21.465Z,2804.00
2023-10-27T11:02:21.465Z,2804.00
2023-10-27T11:03:21.419Z,2768.00
2023-10-27T11:04:27.104Z,2744.00
2023-10-27T11:05:22.605Z,2716.00
2023-10-27T11:06:21.506Z,2676.00
2023-10-27T11:07:21.409Z,2648.00
2023-10-27T11:08:21.359Z,2632.00
2023-10-27T11:09:21.345Z,2580.00
2023-10-27T11:10:22.786Z,2520.00
2023-10-27T11:11:21.775Z,2488.00
2023-10-27T11:12:21.321Z,2452.00
2023-10-27T11:13:21.322Z,2332.00
2023-10-27T11:14:21.291Z,2228.00
2023-10-27T11:15:21.258Z,2060.00
2023-10-27T11:16:21.288Z,1884.00
2023-10-27T11:17:21.243Z,1704.00
2023-10-27T11:18:21.438Z,1596.00
2023-10-27T11:19:21.264Z,1664.00
2023-10-27T11:20:21.201Z,1812.00
2023-10-27T11:21:21.205Z,2000.00
2023-10-27T11:22:21.244Z,2244.00
2023-10-27T11:23:21.176Z,2476.00
2023-10-27T11:24:21.162Z,2608.00
2023-10-27T11:25:21.178Z,2560.00
2023-10-27T11:26:21.141Z,2536.00
2023-10-27T11:27:21.861Z,2860.00
2023-10-27T11:28:21.122Z,3252.00
2023-10-27T11:29:21.103Z,3472.00
2023-10-27T11:30:21.098Z,3368.00
2023-10-27T11:31:21.065Z,3468.00
2023-10-27T11:32:21.049Z,3416.00
2023-10-27T11:33:21.037Z,3284.00
2023-10-27T11:34:21.062Z,3056.00
2023-10-27T11:35:21.010Z,2984.00
2023-10-27T11:36:20.997Z,2892.00
2023-10-27T11:37:21.142Z,2864.00
2023-10-27T11:38:21.012Z,2644.00
2023-10-27T11:39:20.966Z,2500.00
2023-10-27T11:40:20.977Z,2388.00
2023-10-27T11:41:20.930Z,2248.00
2023-10-27T11:42:20.913Z,2212.00
2023-10-27T11:43:20.939Z,2416.00
2023-10-27T11:44:20.924Z,2876.00
2023-10-27T11:45:20.889Z,3436.00
2023-10-27T11:46:20.926Z,3600.00
2023-10-27T11:47:20.846Z,3712.00
2023-10-27T11:48:20.906Z,3656.00
2023-10-27T11:49:20.880Z,3532.00
2023-10-27T11:50:20.956Z,3672.00
2023-10-27T11:51:20.796Z,3928.00
2023-10-27T11:52:21.031Z,4012.00
2023-10-27T11:53:20.776Z,3992.00
2023-10-27T11:54:20.792Z,4120.00
2023-10-27T11:55:20.759Z,4384.00
2023-10-27T11:56:20.751Z,4476.00
2023-10-27T11:57:20.717Z,4548.00
2023-10-27T11:58:20.746Z,4480.00
2023-10-27T11:59:20.716Z,4268.00
2023-10-27T12:00:20.692Z,4200.00
2023-10-27T12:01:20.750Z,4204.00
2023-10-27T12:02:20.660Z,4152.00
2023-10-27T12:03:20.710Z,3992.00
2023-10-27T12:04:20.699Z,3992.00
2023-10-27T12:05:20.677Z,4172.00
2023-10-27T12:06:20.609Z,4220.00
2023-10-27T12:07:20.611Z,4236.00
2023-10-27T12:08:20.590Z,4524.00
2023-10-27T12:09:20.571Z,4676.00
2023-10-27T12:10:20.572Z,4488.00
2023-10-27T12:11:20.544Z,4144.00
2023-10-27T12:12:20.552Z,3660.00
2023-10-27T12:13:20.535Z,3092.00
2023-10-27T12:14:20.553Z,3184.00
2023-10-27T12:15:22.580Z,2876.00
2023-10-27T12:16:20.494Z,2768.00
2023-10-27T12:17:20.494Z,2596.00
2023-10-27T12:18:20.451Z,2420.00
2023-10-27T12:19:20.493Z,2488.00
2023-10-27T12:20:20.489Z,2556.00
2023-10-27T12:21:20.405Z,2588.00
2023-10-27T12:22:20.422Z,2252.00
2023-10-27T12:23:20.381Z,2220.00
2023-10-27T12:24:20.399Z,2208.00
2023-10-27T12:25:20.414Z,2076.00
2023-10-27T12:26:20.348Z,1944.00
2023-10-27T12:27:21.183Z,2072.00
2023-10-27T12:28:20.370Z,2512.00
2023-10-27T12:29:20.313Z,2848.00
2023-10-27T12:30:20.292Z,2984.00
2023-10-27T12:31:20.298Z,2932.00
2023-10-27T12:32:20.363Z,3060.00
2023-10-27T12:33:20.251Z,3436.00
2023-10-27T12:34:20.328Z,3616.00
2023-10-27T12:35:20.225Z,3768.00
2023-10-27T12:36:20.270Z,4288.00
2023-10-27T12:37:20.324Z,4788.00
2023-10-27T12:38:20.203Z,5392.00
2023-10-27T12:39:20.177Z,6148.00
2023-10-27T12:40:20.215Z,6796.00
2023-10-27T12:41:20.172Z,6960.00
2023-10-27T12:42:20.143Z,7588.00
2023-10-27T12:43:20.138Z,8084.00
2023-10-27T12:44:20.856Z,8956.00
2023-10-27T12:45:20.117Z,9200.00
2023-10-27T12:46:20.133Z,9616.00
2023-10-27T12:47:20.068Z,8264.00
2023-10-27T12:48:20.082Z,8484.00
2023-10-27T12:49:20.120Z,8116.00
2023-10-27T12:50:20.396Z,8536.00
2023-10-27T12:51:20.038Z,9152.00
2023-10-27T12:52:20.033Z,9284.00
2023-10-27T12:53:19.988Z,9420.00
2023-10-27T12:54:20.883Z,9652.00
2023-10-27T12:55:20.025Z,9904.00
2023-10-27T12:56:19.961Z,9792.00
2023-10-27T12:57:19.941Z,9532.00
2023-10-27T12:58:20.014Z,9596.00
2023-10-27T12:59:19.942Z,9604.00
2023-10-27T13:00:19.932Z,9328.00
2023-10-27T13:01:19.915Z,9572.00
2023-10-27T13:02:19.883Z,9352.00
2023-10-27T13:03:19.981Z,7988.00
2023-10-27T13:04:19.879Z,7804.00
2023-10-27T13:05:19.858Z,7056.00
2023-10-27T13:06:19.833Z,6328.00
2023-10-27T13:07:19.841Z,5720.00
2023-10-27T13:08:19.797Z,5488.00
2023-10-27T13:09:19.794Z,5400.00
2023-10-27T13:10:19.807Z,5176.00
2023-10-27T13:11:19.810Z,4812.00
2023-10-27T13:12:19.770Z,4656.00
2023-10-27T13:13:19.755Z,4504.00
2023-10-27T13:14:19.736Z,4560.00
2023-10-27T13:15:19.725Z,4572.00
2023-10-27T13:16:19.726Z,4304.00
2023-10-27T13:17:19.694Z,4512.00
2023-10-27T13:18:19.788Z,4664.00
2023-10-27T13:19:19.667Z,4820.00
2023-10-27T13:20:19.644Z,5132.00
2023-10-27T13:21:19.624Z,5520.00
2023-10-27T13:22:19.642Z,6328.00
2023-10-27T13:23:19.605Z,6628.00
2023-10-27T13:24:19.647Z,6480.00
2023-10-27T13:25:19.618Z,6844.00
2023-10-27T13:26:19.855Z,7144.00
2023-10-27T13:27:19.539Z,6616.00
2023-10-27T13:28:19.580Z,6372.00
2023-10-27T13:29:19.528Z,6220.00
2023-10-27T13:30:19.508Z,5408.00
2023-10-27T13:31:19.496Z,4776.00
2023-10-27T13:32:19.484Z,4992.00
2023-10-27T13:33:19.576Z,5356.00
2023-10-27T13:34:19.493Z,5232.00
2023-10-27T13:35:19.446Z,5324.00
2023-10-27T13:36:19.433Z,5272.00
2023-10-27T13:37:19.461Z,5256.00
2023-10-27T13:38:19.419Z,5124.00
2023-10-27T13:39:19.394Z,4820.00
2023-10-27T13:40:19.556Z,4392.00
2023-10-27T13:41:19.385Z,3956.00
2023-10-27T13:42:19.386Z,3620.00
2023-10-27T13:43:19.409Z,3084.00
2023-10-27T13:44:19.329Z,2680.00
2023-10-27T13:45:19.306Z,2476.00
2023-10-27T13:46:19.325Z,2260.00
2023-10-27T13:47:19.304Z,2056.00
2023-10-27T13:48:19.363Z,1916.00
2023-10-27T13:49:19.269Z,1764.00
2023-10-27T13:50:19.252Z,1608.00
2023-10-27T13:51:19.252Z,1504.00
2023-10-27T13:52:19.261Z,1512.00
2023-10-27T13:53:19.202Z,1420.00
2023-10-27T13:54:19.211Z,1272.00
2023-10-27T13:55:19.237Z,1168.00
2023-10-27T13:56:21.019Z,1076.00
2023-10-27T13:57:19.149Z,988.00
2023-10-27T13:58:19.160Z,936.00
2023-10-27T13:59:19.129Z,860.00
2023-10-27T14:00:19.220Z,772.00
2023-10-27T14:01:19.136Z,700.00
2023-10-27T14:02:19.099Z,668.00
2023-10-27T14:03:19.198Z,636.00
2023-10-27T14:04:19.204Z,600.00
2023-10-27T14:05:19.198Z,552.00
2023-10-27T14:06:19.049Z,528.00
2023-10-27T14:07:19.052Z,580.00
2023-10-27T14:08:19.021Z,612.00
2023-10-27T14:09:18.996Z,708.00
2023-10-27T14:10:19.074Z,1024.00
2023-10-27T14:11:19.041Z,1296.00
2023-10-27T14:12:18.966Z,1144.00
2023-10-27T14:13:19.007Z,888.00
2023-10-27T14:14:18.942Z,824.00
2023-10-27T14:15:18.931Z,928.00
2023-10-27T14:16:18.953Z,984.00
2023-10-27T14:17:18.891Z,1032.00
2023-10-27T14:18:18.994Z,976.00
2023-10-27T14:19:18.915Z,872.00
2023-10-27T14:20:18.889Z,740.00
2023-10-27T14:21:18.842Z,732.00
2023-10-27T14:22:18.839Z,784.00
2023-10-27T14:23:18.812Z,828.00
2023-10-27T14:24:18.820Z,952.00
2023-10-27T14:25:18.820Z,1152.00
2023-10-27T14:26:18.792Z,1336.00
2023-10-27T14:27:18.778Z,1528.00
2023-10-27T14:28:18.814Z,1484.00
2023-10-27T14:29:18.749Z,1512.00
2023-10-27T14:30:18.779Z,1716.00
2023-10-27T14:31:18.758Z,1696.00
2023-10-27T14:32:18.707Z,1648.00
2023-10-27T14:33:18.724Z,1580.00
2023-10-27T14:34:18.730Z,1384.00
2023-10-27T14:35:18.664Z,1316.00
2023-10-27T14:36:21.188Z,1280.00
2023-10-27T14:37:18.757Z,1220.00
2023-10-27T14:38:18.631Z,1204.00
2023-10-27T14:39:18.620Z,1268.00
2023-10-27T14:40:18.613Z,1172.00
2023-10-27T14:41:18.580Z,1092.00
2023-10-27T14:42:18.572Z,1124.00
2023-10-27T14:43:18.616Z,1052.00
2023-10-27T14:44:18.566Z,1004.00
2023-10-27T14:45:18.544Z,980.00
2023-10-27T14:46:18.557Z,964.00
2023-10-27T14:47:22.907Z,948.00
2023-10-27T14:48:19.635Z,912.00
2023-10-27T14:49:18.555Z,840.00
2023-10-27T14:50:18.487Z,760.00
2023-10-27T14:51:18.448Z,744.00
2023-10-27T14:52:18.478Z,768.00
2023-10-27T14:53:18.442Z,732.00
2023-10-27T14:54:18.418Z,740.00
2023-10-27T14:55:18.460Z,824.00
2023-10-27T14:56:18.396Z,848.00
2023-10-27T14:57:18.379Z,864.00
2023-10-27T14:58:18.402Z,876.00
2023-10-27T14:59:18.345Z,868.00
2023-10-27T15:00:18.341Z,864.00
2023-10-27T15:01:18.333Z,828.00
2023-10-27T15:02:18.321Z,820.00
2023-10-27T15:03:18.319Z,804.00
2023-10-27T15:04:18.314Z,804.00
2023-10-27T15:05:18.294Z,808.00
2023-10-27T15:06:18.283Z,804.00
2023-10-27T15:07:18.336Z,780.00
2023-10-27T15:08:18.307Z,736.00
2023-10-27T15:09:18.261Z,692.00
2023-10-27T15:10:18.229Z,640.00
2023-10-27T15:11:18.250Z,580.00
2023-10-27T15:12:18.206Z,524.00
2023-10-27T15:13:18.189Z,484.00
2023-10-27T15:14:18.158Z,460.00
2023-10-27T15:15:18.190Z,448.00
2023-10-27T15:16:18.350Z,444.00
2023-10-27T15:17:18.110Z,456.00
2023-10-27T15:18:18.107Z,476.00
2023-10-27T15:19:18.133Z,508.00
2023-10-27T15:20:18.169Z,520.00
2023-10-27T15:21:18.070Z,512.00
2023-10-27T15:22:18.084Z,532.00
2023-10-27T15:23:18.048Z,496.00
2023-10-27T15:24:18.026Z,444.00
2023-10-27T15:25:18.086Z,452.00
2023-10-27T15:26:18.023Z,436.00
2023-10-27T15:27:17.977Z,444.00
2023-10-27T15:28:18.025Z,464.00
2023-10-27T15:29:17.964Z,484.00
2023-10-27T15:30:17.993Z,472.00
2023-10-27T15:31:17.930Z,424.00
2023-10-27T15:32:17.926Z,372.00
2023-10-27T15:33:17.918Z,344.00
2023-10-27T15:34:17.937Z,284.00
2023-10-27T15:35:17.892Z,244.00
2023-10-27T15:36:17.867Z,212.00
2023-10-27T15:37:17.881Z,176.00
2023-10-27T15:38:17.852Z,176.00
2023-10-27T15:39:17.841Z,192.00
2023-10-27T15:40:17.876Z,180.00
2023-10-27T15:41:17.795Z,184.00
2023-10-27T15:42:17.792Z,180.00
2023-10-27T15:43:17.849Z,156.00
2023-10-27T15:44:17.786Z,128.00
2023-10-27T15:45:17.747Z,104.00
2023-10-27T15:46:17.766Z,84.00
2023-10-27T15:47:17.729Z,76.00
2023-10-27T15:48:17.800Z,76.00
2023-10-27T15:49:17.785Z,84.00
2023-10-27T15:50:17.693Z,84.00
2023-10-27T15:51:17.686Z,80.00
2023-10-27T15:52:17.710Z,76.00
2023-10-27T15:53:17.653Z,68.00
2023-10-27T15:54:17.647Z,72.00
2023-10-27T15:55:17.662Z,76.00
2023-10-27T15:56:17.615Z,68.00
2023-10-27T15:57:17.621Z,68.00
2023-10-27T15:58:17.623Z,76.00
2023-10-27T15:59:17.632Z,72.00
2023-10-27T16:00:17.594Z,76.00
2023-10-27T16:01:17.658Z,68.00
2023-10-27T16:02:17.529Z,60.00
2023-10-27T16:03:17.591Z,48.00
2023-10-27T16:04:17.632Z,40.00
2023-10-27T16:05:17.530Z,44.00
2023-10-27T16:06:17.483Z,48.00
2023-10-27T16:07:17.477Z,48.00
2023-10-27T16:08:17.484Z,44.00
2023-10-27T16:09:35.318Z,40.00
2023-10-27T16:10:18.449Z,36.00
2023-10-27T16:11:17.436Z,32.00
2023-10-27T16:12:17.403Z,32.00
2023-10-27T16:13:17.518Z,32.00
2023-10-27T16:14:17.388Z,24.00
2023-10-27T16:15:17.372Z,24.00
2023-10-27T16:16:17.361Z,24.00
2023-10-27T16:17:17.377Z,24.00
2023-10-27T16:18:17.442Z,24.00
2023-10-27T16:19:17.432Z,16.00
2023-10-27T16:20:17.324Z,12.00
2023-10-27T16:21:17.333Z,12.00
2023-10-27T16:22:17.287Z,8.00
2023-10-27T16:23:17.261Z,8.00
2023-10-27T16:24:17.260Z,4.00
2023-10-27T16:25:17.255Z,4.00
2023-10-27T16:26:17.877Z,4.00
2023-10-27T16:27:17.235Z,4.00
2023-10-27T16:28:17.250Z,4.00
2023-10-27T16:29:17.211Z,4.00
2023-10-27T16:30:17.168Z,4.00
2023-10-27T16:31:17.158Z,0.00
2023-10-27T16:32:17.165Z,4.00
2023-10-27T16:33:17.154Z,4.00
2023-10-27T16:34:17.140Z,4.00
2023-10-27T16:35:17.107Z,4.00
2023-10-27T16:36:17.112Z,0.00
2023-10-27T16:37:17.099Z,0.00
2023-10-27T16:38:17.064Z,0.00
2023-10-27T16:39:17.069Z,0.00
2023-10-27T16:40:17.064Z,0.00
2023-10-27T16:41:17.053Z,0.00
2023-10-27T16:42:17.025Z,0.00